ENTO

Sandefjord Torp Airport

Torp, Norway
METAR ENTO 161550Z 21007KT 9999 OVC017 08/04 Q1035
Observed Flight Rules
Nov-16 @ 15:50 UTC (16 minutes ago) Marginal Visual Flight Rules
Wind Visibility Clouds
210° at 7 knots 10,000+ meters
  • Overcast at 1,700' AGL
Temperatures Readings
Current 8°C / 46°F
Dewpoint 4°C / 39°F
Humidity 76%
Altimeter 30.56" Hg
Pressure 1035 hPa
Elevation 88
METAR ENTO 161550Z 21007KT 9999 OVC017 08/04 Q1035
Observed Flight Rules
Nov-16 @ 15:50 UTC
(16 minutes ago)
MVFR
Wind Visibility
210° at 7 knots 10,000+ meters
Clouds
  • Overcast at 1,700' AGL
Temperature Dewpoint
8°C / 46°F 4°C / 39°F
Humidity Altimeter Pressure
76% 30.56" Hg 1035 hPa